createdAt,value
2023-01-11T00:03:43.227Z,15.9
2023-01-11T00:08:49.309Z,15.9
2023-01-11T00:13:55.409Z,15.9
2023-01-11T00:19:01.507Z,15.9
2023-01-11T00:24:07.585Z,15.9
2023-01-11T00:29:13.665Z,15.9
2023-01-11T00:34:19.776Z,15.9
2023-01-11T00:39:25.858Z,15.9
2023-01-11T00:44:30.958Z,15.8
2023-01-11T00:49:37.060Z,15.8
2023-01-11T00:54:43.136Z,15.8
2023-01-11T00:59:49.221Z,15.8
2023-01-11T01:04:55.310Z,15.8
2023-01-11T01:10:01.423Z,15.8
2023-01-11T01:15:07.489Z,15.8
2023-01-11T01:20:13.584Z,15.8
2023-01-11T01:25:19.675Z,15.8
2023-01-11T01:30:25.757Z,15.8
2023-01-11T01:35:31.846Z,15.8
2023-01-11T01:40:37.935Z,15.8
2023-01-11T01:45:44.032Z,15.7
2023-01-11T01:50:49.129Z,15.7
2023-01-11T01:55:55.220Z,15.7
2023-01-11T02:01:01.320Z,15.7
2023-01-11T02:06:07.399Z,15.7
2023-01-11T02:11:13.499Z,15.7
2023-01-11T02:16:19.591Z,15.7
2023-01-11T02:21:25.698Z,15.7
2023-01-11T02:26:31.777Z,15.7
2023-01-11T02:31:36.890Z,15.6
2023-01-11T02:36:42.952Z,15.7
2023-01-11T02:41:48.075Z,15.6
2023-01-11T02:46:54.187Z,15.6
2023-01-11T02:52:00.255Z,15.6
2023-01-11T02:57:06.355Z,15.6
2023-01-11T03:02:12.448Z,15.6
2023-01-11T03:07:18.527Z,15.6
2023-01-11T03:12:24.615Z,15.6
2023-01-11T03:17:30.696Z,15.6
2023-01-11T03:22:35.812Z,15.6
2023-01-11T03:27:41.898Z,15.6
2023-01-11T03:32:47.990Z,15.6
2023-01-11T03:37:54.072Z,15.6
2023-01-11T03:42:59.177Z,15.6
2023-01-11T03:48:05.273Z,15.6
2023-01-11T03:53:11.366Z,15.6
2023-01-11T03:58:17.454Z,15.6
2023-01-11T04:03:23.540Z,15.5
2023-01-11T04:08:29.630Z,15.5
2023-01-11T04:13:35.725Z,15.5
2023-01-11T04:18:41.819Z,15.5
2023-01-11T04:23:47.897Z,15.5
2023-01-11T04:28:54.004Z,15.5
2023-01-11T04:34:00.077Z,15.5
2023-01-11T04:39:06.180Z,15.5
2023-01-11T04:44:12.256Z,15.5
2023-01-11T04:49:18.385Z,15.5
2023-01-11T04:54:24.459Z,15.5
2023-01-11T04:59:29.543Z,15.5
2023-01-11T05:04:35.623Z,15.5
2023-01-11T05:09:41.724Z,15.5
2023-01-11T05:14:47.805Z,15.5
2023-01-11T05:19:53.896Z,15.5
2023-01-11T05:24:59.980Z,15.5
2023-01-11T05:30:06.134Z,15.5
2023-01-11T05:35:12.203Z,15.5
2023-01-11T05:40:17.273Z,15.5
2023-01-11T05:45:23.362Z,15.5
2023-01-11T05:50:29.464Z,15.5
2023-01-11T05:55:34.553Z,15.5
2023-01-11T06:00:40.662Z,15.5
2023-01-11T06:05:46.728Z,15.5
2023-01-11T06:10:52.823Z,15.5
2023-01-11T06:15:58.909Z,15.5
2023-01-11T06:21:05.000Z,15.5
2023-01-11T06:26:11.096Z,15.5
2023-01-11T06:31:17.178Z,15.5
2023-01-11T06:36:23.299Z,15.5
2023-01-11T06:41:29.364Z,15.5
2023-01-11T06:46:35.441Z,15.5
2023-01-11T06:51:41.543Z,15.7
2023-01-11T06:56:47.646Z,15.9
2023-01-11T07:01:52.775Z,16.1
2023-01-11T07:06:58.884Z,16.4
2023-01-11T07:12:04.912Z,16.6
2023-01-11T07:17:10.997Z,16.9
2023-01-11T07:22:17.109Z,17.1
2023-01-11T07:27:23.236Z,17.2
2023-01-11T07:32:29.271Z,17.2
2023-01-11T07:37:34.405Z,17.1
2023-01-11T07:42:40.468Z,17
2023-01-11T07:47:46.573Z,17.1
2023-01-11T07:52:51.674Z,17.3
2023-01-11T07:57:57.763Z,17.2
2023-01-11T08:03:03.856Z,17.2
2023-01-11T08:08:10.089Z,17.1
2023-01-11T08:13:16.025Z,16.8
2023-01-11T08:18:22.213Z,16
2023-01-11T08:23:27.241Z,15.4
2023-01-11T08:33:39.406Z,15
2023-01-11T08:38:45.509Z,14.9
2023-01-11T08:43:51.598Z,14.8
2023-01-11T08:48:57.732Z,14.7
2023-01-11T08:54:03.828Z,14.6
2023-01-11T08:59:09.868Z,14.6
2023-01-11T09:04:15.960Z,14.4
2023-01-11T09:09:22.062Z,14.4
2023-01-11T09:14:28.223Z,14.3
2023-01-11T09:19:34.330Z,14.3
2023-01-11T09:24:40.303Z,14.4
2023-01-11T09:29:46.509Z,14.7
2023-01-11T09:34:52.479Z,15.1
2023-01-11T09:39:58.566Z,15.6
2023-01-11T09:45:04.659Z,16
2023-01-11T09:50:10.778Z,16.3
2023-01-11T09:55:15.851Z,16.5
2023-01-11T10:00:22.005Z,16.8
2023-01-11T10:05:28.063Z,17
2023-01-11T10:18:21.008Z,17
2023-01-11T10:20:46.302Z,16.9
2023-01-11T10:25:52.398Z,17
2023-01-11T10:30:58.563Z,17.1
2023-01-11T10:36:04.647Z,17.2
2023-01-11T10:41:10.681Z,17.4
2023-01-11T10:46:16.781Z,17.5
2023-01-11T10:51:22.989Z,17.6
2023-01-11T10:56:29.123Z,17.7
2023-01-11T11:01:34.220Z,17.6
2023-01-11T11:06:40.333Z,17.4
2023-01-11T11:11:46.393Z,17.4
2023-01-11T11:16:52.440Z,17.5
2023-01-11T11:21:58.581Z,17.7
2023-01-11T11:27:04.638Z,17.8
2023-01-11T11:32:10.727Z,17.9
2023-01-11T11:37:16.845Z,17.7
2023-01-11T11:42:22.923Z,17.6
2023-01-11T11:47:29.039Z,17.6
2023-01-11T11:52:34.932Z,17.7
2023-01-11T11:57:41.023Z,17.8
2023-01-11T12:02:47.134Z,17.9
2023-01-11T12:07:53.199Z,17.8
2023-01-11T12:12:58.302Z,17.7
2023-01-11T12:18:04.397Z,17.6
2023-01-11T12:23:10.499Z,17.6
2023-01-11T12:28:16.581Z,17.6
2023-01-11T12:33:22.658Z,17.6
2023-01-11T12:38:28.757Z,17.6
2023-01-11T12:43:33.888Z,17.6
2023-01-11T12:48:39.963Z,17.5
2023-01-11T12:53:45.067Z,17.6
2023-01-11T12:58:51.168Z,17.6
2023-01-11T13:03:57.237Z,17.6
2023-01-11T13:09:03.343Z,17.5
2023-01-11T13:14:09.433Z,17.5
2023-01-11T13:19:15.521Z,17.6
2023-01-11T13:24:21.609Z,17.6
2023-01-11T13:29:27.701Z,17.5
2023-01-11T13:39:38.909Z,17.5
2023-01-11T13:44:44.021Z,17.5
2023-01-11T13:49:50.115Z,17.6
2023-01-11T13:54:56.200Z,17.6
2023-01-11T14:00:02.288Z,17.6
2023-01-11T14:05:08.379Z,17.5
2023-01-11T14:10:14.464Z,17.6
2023-01-11T14:15:20.549Z,17.6
2023-01-11T14:20:26.669Z,17.6
2023-01-11T14:25:31.751Z,17.6
2023-01-11T14:30:37.853Z,17.6
2023-01-11T14:35:43.939Z,17.5
2023-01-11T14:40:50.016Z,17.6
2023-01-11T14:45:56.105Z,17.6
2023-01-11T14:51:02.201Z,17.6
2023-01-11T14:56:08.289Z,17.6
2023-01-11T15:01:14.364Z,17.6
2023-01-11T15:06:20.467Z,17.6
2023-01-11T15:11:26.562Z,17.6
2023-01-11T15:16:32.665Z,17.6
2023-01-11T15:21:38.738Z,17.6
2023-01-11T15:26:44.825Z,17.6
2023-01-11T15:31:50.904Z,17.6
2023-01-11T15:36:57.025Z,17.7
2023-01-11T15:42:03.091Z,17.6
2023-01-11T15:47:09.184Z,17.6
2023-01-11T15:52:14.295Z,17.7
2023-01-11T15:57:20.393Z,17.7
2023-01-11T16:02:26.496Z,17.7
2023-01-11T16:07:32.568Z,17.7
2023-01-11T16:12:38.652Z,17.7
2023-01-11T16:17:44.746Z,17.6
2023-01-11T16:22:50.829Z,17.6
2023-01-11T16:27:56.937Z,17.6
2023-01-11T16:33:03.020Z,17.6
2023-01-11T16:38:09.101Z,17.6
2023-01-11T16:43:15.193Z,17.6
2023-01-11T16:48:21.283Z,17.6
2023-01-11T16:53:27.391Z,17.6
2023-01-11T16:58:32.494Z,17.6
2023-01-11T17:03:38.568Z,17.6
2023-01-11T17:08:44.667Z,17.6
2023-01-11T17:13:50.746Z,17.6
2023-01-11T17:18:56.842Z,17.6
2023-01-11T17:24:02.936Z,17.6
2023-01-11T17:29:09.030Z,17.6
2023-01-11T17:34:15.107Z,17.6
2023-01-11T17:39:21.201Z,17.6
2023-01-11T17:44:27.296Z,17.6
2023-01-11T17:49:32.404Z,17.6
2023-01-11T17:54:38.495Z,17.6
2023-01-11T17:59:44.585Z,17.6
2023-01-11T18:04:50.678Z,17.6
2023-01-11T18:09:55.797Z,17.6
2023-01-11T18:20:06.979Z,17.6
2023-01-11T18:25:13.073Z,17.6
2023-01-11T18:30:19.163Z,17.6
2023-01-11T18:35:25.255Z,17.6
2023-01-11T18:40:31.343Z,17.6
2023-01-11T18:45:37.440Z,17.6
2023-01-11T18:50:43.521Z,17.6
2023-01-11T18:55:49.640Z,17.6
2023-01-11T19:00:55.702Z,17.6
2023-01-11T19:06:01.792Z,17.5
2023-01-11T19:11:07.868Z,17.5
2023-01-11T19:16:13.972Z,17.5
2023-01-11T19:21:20.066Z,17.4
2023-01-11T19:26:26.144Z,17.4
2023-01-11T19:31:32.237Z,17.3
2023-01-11T19:36:38.328Z,17.3
2023-01-11T19:41:44.431Z,17.2
2023-01-11T19:46:50.514Z,17.2
2023-01-11T19:51:56.591Z,17.2
2023-01-11T19:57:01.710Z,17.1
2023-01-11T20:02:07.801Z,17.1
2023-01-11T20:07:13.880Z,17.1
2023-01-11T20:12:19.972Z,17
2023-01-11T20:22:32.153Z,17
2023-01-11T20:27:38.231Z,17
2023-01-11T20:32:44.332Z,16.9
2023-01-11T20:37:49.436Z,16.9
2023-01-11T20:42:55.546Z,16.9
2023-01-11T20:48:00.647Z,16.9
2023-01-11T20:53:06.736Z,16.8
2023-01-11T20:58:12.818Z,16.8
2023-01-11T21:03:18.906Z,16.8
2023-01-11T21:08:25.058Z,16.8
2023-01-11T21:18:36.230Z,16.7
2023-01-11T21:23:42.291Z,16.7
2023-01-11T21:28:48.383Z,16.7
2023-01-11T21:33:54.464Z,16.7
2023-01-11T21:38:59.592Z,16.6
2023-01-11T21:44:05.676Z,16.6
2023-01-11T21:49:10.781Z,16.6
2023-01-11T21:54:16.868Z,16.6
2023-01-11T21:59:22.975Z,16.6
2023-01-11T22:04:29.056Z,16.5
2023-01-11T22:09:35.134Z,16.5
2023-01-11T22:14:41.288Z,16.5
2023-01-11T22:19:47.316Z,16.5
2023-01-11T22:24:53.410Z,16.5
2023-01-11T22:29:59.566Z,16.5
2023-01-11T22:35:05.678Z,16.5
2023-01-11T22:40:11.743Z,16.4
2023-01-11T22:50:23.940Z,16.4
2023-01-11T22:55:28.987Z,16.4
2023-01-11T23:00:35.056Z,16.4
2023-01-11T23:05:41.157Z,16.4
2023-01-11T23:10:47.230Z,16.3
2023-01-11T23:15:53.346Z,16.3
2023-01-11T23:20:59.409Z,16.3
2023-01-11T23:26:05.495Z,16.3
2023-01-11T23:31:11.591Z,16.3
2023-01-11T23:36:17.683Z,16.3
2023-01-11T23:41:22.818Z,16.3
2023-01-11T23:46:27.923Z,16.2
2023-01-11T23:51:33.989Z,16.2
2023-01-11T23:56:40.072Z,16.2
